sensor_id;sensor_type;location;lat;lon;timestamp;P1;durP1;ratioP1;P2;durP2;ratioP2
51614;SDS011;37695;52.960;6.188;2022-12-29T00:01:34;3.28;;;2.53;;
51614;SDS011;37695;52.960;6.188;2022-12-29T00:04:00;3.60;;;2.45;;
51614;SDS011;37695;52.960;6.188;2022-12-29T00:06:26;5.30;;;2.70;;
51614;SDS011;37695;52.960;6.188;2022-12-29T00:08:52;4.03;;;2.90;;
51614;SDS011;37695;52.960;6.188;2022-12-29T00:11:18;4.45;;;2.60;;
51614;SDS011;37695;52.960;6.188;2022-12-29T00:13:45;3.47;;;2.50;;
51614;SDS011;37695;52.960;6.188;2022-12-29T00:16:30;4.03;;;3.17;;
51614;SDS011;37695;52.960;6.188;2022-12-29T00:18:57;4.85;;;3.08;;
51614;SDS011;37695;52.960;6.188;2022-12-29T00:21:23;3.80;;;2.83;;
51614;SDS011;37695;52.960;6.188;2022-12-29T00:24:12;4.47;;;3.00;;
51614;SDS011;37695;52.960;6.188;2022-12-29T00:26:55;4.03;;;3.00;;
51614;SDS011;37695;52.960;6.188;2022-12-29T00:29:50;4.00;;;3.00;;
51614;SDS011;37695;52.960;6.188;2022-12-29T00:32:34;3.90;;;2.92;;
51614;SDS011;37695;52.960;6.188;2022-12-29T00:37:53;4.88;;;3.08;;
51614;SDS011;37695;52.960;6.188;2022-12-29T00:40:38;5.80;;;2.88;;
51614;SDS011;37695;52.960;6.188;2022-12-29T00:43:23;3.83;;;2.83;;
51614;SDS011;37695;52.960;6.188;2022-12-29T00:46:08;4.07;;;2.70;;
51614;SDS011;37695;52.960;6.188;2022-12-29T00:48:33;4.82;;;2.90;;
51614;SDS011;37695;52.960;6.188;2022-12-29T00:51:17;4.22;;;2.92;;
51614;SDS011;37695;52.960;6.188;2022-12-29T00:53:43;4.00;;;2.95;;
51614;SDS011;37695;52.960;6.188;2022-12-29T00:56:08;3.30;;;2.70;;
51614;SDS011;37695;52.960;6.188;2022-12-29T00:58:34;5.05;;;3.10;;
51614;SDS011;37695;52.960;6.188;2022-12-29T01:01:03;4.18;;;2.58;;
51614;SDS011;37695;52.960;6.188;2022-12-29T01:03:30;4.22;;;2.72;;
51614;SDS011;37695;52.960;6.188;2022-12-29T01:05:56;3.78;;;2.47;;
51614;SDS011;37695;52.960;6.188;2022-12-29T01:08:21;3.90;;;2.50;;
51614;SDS011;37695;52.960;6.188;2022-12-29T01:10:57;3.25;;;2.58;;
51614;SDS011;37695;52.960;6.188;2022-12-29T01:13:25;3.72;;;2.65;;
51614;SDS011;37695;52.960;6.188;2022-12-29T01:15:51;3.35;;;2.45;;
51614;SDS011;37695;52.960;6.188;2022-12-29T01:18:17;4.18;;;2.65;;
51614;SDS011;37695;52.960;6.188;2022-12-29T01:20:43;9.52;;;4.07;;
51614;SDS011;37695;52.960;6.188;2022-12-29T01:23:09;4.45;;;2.50;;
51614;SDS011;37695;52.960;6.188;2022-12-29T01:25:34;4.18;;;2.58;;
51614;SDS011;37695;52.960;6.188;2022-12-29T01:28:00;3.42;;;2.47;;
51614;SDS011;37695;52.960;6.188;2022-12-29T01:30:25;3.70;;;2.58;;
51614;SDS011;37695;52.960;6.188;2022-12-29T01:32:51;3.78;;;2.25;;
51614;SDS011;37695;52.960;6.188;2022-12-29T01:35:16;3.90;;;2.47;;
51614;SDS011;37695;52.960;6.188;2022-12-29T01:37:42;4.93;;;2.80;;
51614;SDS011;37695;52.960;6.188;2022-12-29T01:40:08;4.03;;;2.13;;
51614;SDS011;37695;52.960;6.188;2022-12-29T01:42:34;4.07;;;2.20;;
51614;SDS011;37695;52.960;6.188;2022-12-29T01:45:03;3.45;;;2.22;;
51614;SDS011;37695;52.960;6.188;2022-12-29T01:50:14;3.15;;;2.20;;
51614;SDS011;37695;52.960;6.188;2022-12-29T01:53:01;4.25;;;2.30;;
51614;SDS011;37695;52.960;6.188;2022-12-29T01:55:36;2.95;;;2.10;;
51614;SDS011;37695;52.960;6.188;2022-12-29T01:58:05;3.35;;;2.22;;
51614;SDS011;37695;52.960;6.188;2022-12-29T02:00:32;3.70;;;2.03;;
51614;SDS011;37695;52.960;6.188;2022-12-29T02:02:58;3.45;;;2.15;;
51614;SDS011;37695;52.960;6.188;2022-12-29T02:05:28;3.45;;;1.80;;
51614;SDS011;37695;52.960;6.188;2022-12-29T02:08:18;4.57;;;2.10;;
51614;SDS011;37695;52.960;6.188;2022-12-29T02:10:47;2.28;;;1.73;;
51614;SDS011;37695;52.960;6.188;2022-12-29T02:13:15;3.25;;;2.00;;
51614;SDS011;37695;52.960;6.188;2022-12-29T02:15:54;3.90;;;1.95;;
51614;SDS011;37695;52.960;6.188;2022-12-29T02:21:48;2.42;;;1.65;;
51614;SDS011;37695;52.960;6.188;2022-12-29T02:29:53;3.40;;;1.90;;
51614;SDS011;37695;52.960;6.188;2022-12-29T02:40:46;1.77;;;1.40;;
51614;SDS011;37695;52.960;6.188;2022-12-29T02:43:26;3.42;;;1.42;;
51614;SDS011;37695;52.960;6.188;2022-12-29T02:45:58;2.65;;;1.40;;
51614;SDS011;37695;52.960;6.188;2022-12-29T02:48:30;2.47;;;1.45;;
51614;SDS011;37695;52.960;6.188;2022-12-29T02:51:16;4.90;;;1.48;;
51614;SDS011;37695;52.960;6.188;2022-12-29T02:53:45;2.45;;;1.40;;
51614;SDS011;37695;52.960;6.188;2022-12-29T02:56:30;2.58;;;1.65;;
51614;SDS011;37695;52.960;6.188;2022-12-29T02:58:56;2.25;;;1.50;;
51614;SDS011;37695;52.960;6.188;2022-12-29T03:01:29;2.25;;;1.45;;
51614;SDS011;37695;52.960;6.188;2022-12-29T03:10:30;2.30;;;1.52;;
51614;SDS011;37695;52.960;6.188;2022-12-29T03:13:35;2.13;;;1.40;;
51614;SDS011;37695;52.960;6.188;2022-12-29T03:16:35;1.80;;;1.20;;
51614;SDS011;37695;52.960;6.188;2022-12-29T03:19:15;1.88;;;1.30;;
51614;SDS011;37695;52.960;6.188;2022-12-29T03:21:48;4.78;;;1.65;;
51614;SDS011;37695;52.960;6.188;2022-12-29T03:24:43;4.93;;;1.52;;
51614;SDS011;37695;52.960;6.188;2022-12-29T03:27:13;3.67;;;1.60;;
51614;SDS011;37695;52.960;6.188;2022-12-29T03:29:51;2.67;;;1.60;;
51614;SDS011;37695;52.960;6.188;2022-12-29T03:32:18;2.25;;;1.30;;
51614;SDS011;37695;52.960;6.188;2022-12-29T03:34:45;2.10;;;1.45;;
51614;SDS011;37695;52.960;6.188;2022-12-29T03:37:15;2.25;;;1.27;;
51614;SDS011;37695;52.960;6.188;2022-12-29T03:39:45;1.83;;;1.20;;
51614;SDS011;37695;52.960;6.188;2022-12-29T03:42:14;4.00;;;1.63;;
51614;SDS011;37695;52.960;6.188;2022-12-29T03:44:44;3.15;;;1.50;;
51614;SDS011;37695;52.960;6.188;2022-12-29T03:47:10;3.70;;;1.60;;
51614;SDS011;37695;52.960;6.188;2022-12-29T03:49:37;2.08;;;1.27;;
51614;SDS011;37695;52.960;6.188;2022-12-29T03:52:02;2.67;;;1.50;;
51614;SDS011;37695;52.960;6.188;2022-12-29T03:54:28;5.70;;;1.50;;
51614;SDS011;37695;52.960;6.188;2022-12-29T03:56:54;6.03;;;1.80;;
51614;SDS011;37695;52.960;6.188;2022-12-29T03:59:20;1.83;;;1.20;;
51614;SDS011;37695;52.960;6.188;2022-12-29T04:01:45;3.78;;;1.50;;
51614;SDS011;37695;52.960;6.188;2022-12-29T04:04:11;2.85;;;1.30;;
51614;SDS011;37695;52.960;6.188;2022-12-29T04:06:37;3.00;;;1.40;;
51614;SDS011;37695;52.960;6.188;2022-12-29T04:09:03;3.38;;;1.50;;
51614;SDS011;37695;52.960;6.188;2022-12-29T04:11:28;2.78;;;1.20;;
51614;SDS011;37695;52.960;6.188;2022-12-29T04:13:54;4.82;;;1.40;;
51614;SDS011;37695;52.960;6.188;2022-12-29T04:16:19;3.72;;;1.30;;
51614;SDS011;37695;52.960;6.188;2022-12-29T04:18:45;2.58;;;1.33;;
51614;SDS011;37695;52.960;6.188;2022-12-29T04:21:10;2.33;;;1.05;;
51614;SDS011;37695;52.960;6.188;2022-12-29T04:23:36;5.65;;;1.25;;
51614;SDS011;37695;52.960;6.188;2022-12-29T04:26:04;4.10;;;1.33;;
51614;SDS011;37695;52.960;6.188;2022-12-29T04:28:34;4.38;;;1.35;;
51614;SDS011;37695;52.960;6.188;2022-12-29T04:31:01;3.47;;;1.08;;
51614;SDS011;37695;52.960;6.188;2022-12-29T04:33:28;4.97;;;1.48;;
51614;SDS011;37695;52.960;6.188;2022-12-29T04:35:53;6.53;;;1.48;;
51614;SDS011;37695;52.960;6.188;2022-12-29T04:38:20;1.77;;;1.02;;
51614;SDS011;37695;52.960;6.188;2022-12-29T04:40:47;4.65;;;1.20;;
51614;SDS011;37695;52.960;6.188;2022-12-29T04:43:13;4.75;;;1.48;;
51614;SDS011;37695;52.960;6.188;2022-12-29T04:45:43;3.70;;;1.30;;
51614;SDS011;37695;52.960;6.188;2022-12-29T04:48:10;5.90;;;1.65;;
51614;SDS011;37695;52.960;6.188;2022-12-29T04:50:35;6.63;;;1.73;;
51614;SDS011;37695;52.960;6.188;2022-12-29T04:53:01;3.38;;;1.15;;
51614;SDS011;37695;52.960;6.188;2022-12-29T04:55:27;5.55;;;1.67;;
51614;SDS011;37695;52.960;6.188;2022-12-29T04:57:52;3.97;;;1.30;;
51614;SDS011;37695;52.960;6.188;2022-12-29T05:00:18;6.50;;;1.20;;
51614;SDS011;37695;52.960;6.188;2022-12-29T05:02:44;6.88;;;1.75;;
51614;SDS011;37695;52.960;6.188;2022-12-29T05:05:09;5.03;;;1.50;;
51614;SDS011;37695;52.960;6.188;2022-12-29T05:07:35;6.45;;;1.88;;
51614;SDS011;37695;52.960;6.188;2022-12-29T05:10:01;4.63;;;1.77;;
51614;SDS011;37695;52.960;6.188;2022-12-29T05:12:29;4.90;;;1.83;;
51614;SDS011;37695;52.960;6.188;2022-12-29T05:14:55;3.85;;;1.50;;
51614;SDS011;37695;52.960;6.188;2022-12-29T05:17:21;6.50;;;2.13;;
51614;SDS011;37695;52.960;6.188;2022-12-29T05:19:46;7.05;;;1.65;;
51614;SDS011;37695;52.960;6.188;2022-12-29T05:22:12;6.53;;;1.70;;
51614;SDS011;37695;52.960;6.188;2022-12-29T05:24:37;8.30;;;2.13;;
51614;SDS011;37695;52.960;6.188;2022-12-29T05:27:03;7.20;;;1.92;;
51614;SDS011;37695;52.960;6.188;2022-12-29T05:29:28;5.65;;;1.77;;
51614;SDS011;37695;52.960;6.188;2022-12-29T05:31:54;12.23;;;2.05;;
51614;SDS011;37695;52.960;6.188;2022-12-29T05:34:20;5.82;;;1.85;;
51614;SDS011;37695;52.960;6.188;2022-12-29T05:36:45;10.75;;;2.53;;
51614;SDS011;37695;52.960;6.188;2022-12-29T05:39:11;6.97;;;1.77;;
51614;SDS011;37695;52.960;6.188;2022-12-29T05:41:36;6.88;;;1.50;;
51614;SDS011;37695;52.960;6.188;2022-12-29T05:44:02;8.10;;;2.20;;
51614;SDS011;37695;52.960;6.188;2022-12-29T05:46:27;8.32;;;1.95;;
51614;SDS011;37695;52.960;6.188;2022-12-29T05:48:53;8.20;;;2.05;;
51614;SDS011;37695;52.960;6.188;2022-12-29T05:51:18;6.45;;;1.60;;
51614;SDS011;37695;52.960;6.188;2022-12-29T05:53:44;7.80;;;1.58;;
51614;SDS011;37695;52.960;6.188;2022-12-29T05:56:09;5.05;;;1.70;;
51614;SDS011;37695;52.960;6.188;2022-12-29T05:58:35;8.25;;;2.28;;
51614;SDS011;37695;52.960;6.188;2022-12-29T06:01:00;6.28;;;2.38;;
51614;SDS011;37695;52.960;6.188;2022-12-29T06:03:26;4.88;;;1.63;;
51614;SDS011;37695;52.960;6.188;2022-12-29T06:05:51;9.05;;;1.73;;
51614;SDS011;37695;52.960;6.188;2022-12-29T06:08:17;5.57;;;1.88;;
51614;SDS011;37695;52.960;6.188;2022-12-29T06:10:42;5.43;;;1.60;;
51614;SDS011;37695;52.960;6.188;2022-12-29T06:13:08;4.75;;;1.73;;
51614;SDS011;37695;52.960;6.188;2022-12-29T06:15:34;10.13;;;2.92;;
51614;SDS011;37695;52.960;6.188;2022-12-29T06:18:00;6.72;;;1.60;;
51614;SDS011;37695;52.960;6.188;2022-12-29T06:20:26;5.60;;;1.80;;
51614;SDS011;37695;52.960;6.188;2022-12-29T06:22:52;7.13;;;1.88;;
51614;SDS011;37695;52.960;6.188;2022-12-29T06:25:17;8.77;;;2.20;;
51614;SDS011;37695;52.960;6.188;2022-12-29T06:27:43;9.40;;;2.25;;
51614;SDS011;37695;52.960;6.188;2022-12-29T06:30:09;8.35;;;2.17;;
51614;SDS011;37695;52.960;6.188;2022-12-29T06:32:35;14.73;;;2.90;;
51614;SDS011;37695;52.960;6.188;2022-12-29T06:35:01;7.22;;;2.40;;
51614;SDS011;37695;52.960;6.188;2022-12-29T06:37:27;11.40;;;2.20;;
51614;SDS011;37695;52.960;6.188;2022-12-29T06:39:53;6.82;;;2.17;;
51614;SDS011;37695;52.960;6.188;2022-12-29T06:42:18;9.50;;;2.10;;
51614;SDS011;37695;52.960;6.188;2022-12-29T06:44:44;9.38;;;2.47;;
51614;SDS011;37695;52.960;6.188;2022-12-29T06:47:10;10.88;;;2.47;;
51614;SDS011;37695;52.960;6.188;2022-12-29T06:49:35;10.20;;;2.25;;
51614;SDS011;37695;52.960;6.188;2022-12-29T06:52:01;7.13;;;2.25;;
51614;SDS011;37695;52.960;6.188;2022-12-29T06:54:29;9.27;;;2.45;;
51614;SDS011;37695;52.960;6.188;2022-12-29T06:56:55;6.82;;;2.13;;
51614;SDS011;37695;52.960;6.188;2022-12-29T06:59:20;8.18;;;1.85;;
51614;SDS011;37695;52.960;6.188;2022-12-29T07:01:46;10.70;;;2.15;;
51614;SDS011;37695;52.960;6.188;2022-12-29T07:04:12;11.35;;;2.35;;
51614;SDS011;37695;52.960;6.188;2022-12-29T07:06:37;8.18;;;2.42;;
51614;SDS011;37695;52.960;6.188;2022-12-29T07:09:05;9.40;;;2.17;;
51614;SDS011;37695;52.960;6.188;2022-12-29T07:11:31;8.15;;;1.88;;
51614;SDS011;37695;52.960;6.188;2022-12-29T07:13:57;8.32;;;2.30;;
51614;SDS011;37695;52.960;6.188;2022-12-29T07:16:22;11.00;;;2.30;;
51614;SDS011;37695;52.960;6.188;2022-12-29T07:18:48;10.05;;;2.85;;
51614;SDS011;37695;52.960;6.188;2022-12-29T07:21:14;7.78;;;1.90;;
51614;SDS011;37695;52.960;6.188;2022-12-29T07:23:39;8.30;;;2.35;;
51614;SDS011;37695;52.960;6.188;2022-12-29T07:26:07;9.68;;;2.40;;
51614;SDS011;37695;52.960;6.188;2022-12-29T07:28:35;9.15;;;2.55;;
51614;SDS011;37695;52.960;6.188;2022-12-29T07:31:01;9.55;;;2.03;;
51614;SDS011;37695;52.960;6.188;2022-12-29T07:33:29;9.85;;;2.33;;
51614;SDS011;37695;52.960;6.188;2022-12-29T07:35:56;9.00;;;2.10;;
51614;SDS011;37695;52.960;6.188;2022-12-29T07:38:22;11.60;;;2.65;;
51614;SDS011;37695;52.960;6.188;2022-12-29T07:40:47;6.70;;;1.85;;
51614;SDS011;37695;52.960;6.188;2022-12-29T07:43:13;8.77;;;2.08;;
51614;SDS011;37695;52.960;6.188;2022-12-29T07:45:38;9.63;;;2.38;;
51614;SDS011;37695;52.960;6.188;2022-12-29T07:48:05;8.55;;;2.58;;
51614;SDS011;37695;52.960;6.188;2022-12-29T07:50:33;10.13;;;2.17;;
51614;SDS011;37695;52.960;6.188;2022-12-29T07:52:59;14.38;;;2.78;;
51614;SDS011;37695;52.960;6.188;2022-12-29T07:55:25;9.18;;;2.17;;
51614;SDS011;37695;52.960;6.188;2022-12-29T07:57:52;8.27;;;2.40;;
51614;SDS011;37695;52.960;6.188;2022-12-29T08:00:19;8.40;;;2.25;;
51614;SDS011;37695;52.960;6.188;2022-12-29T08:02:44;8.98;;;2.42;;
51614;SDS011;37695;52.960;6.188;2022-12-29T08:05:10;8.55;;;2.33;;
51614;SDS011;37695;52.960;6.188;2022-12-29T08:07:36;9.25;;;2.33;;
51614;SDS011;37695;52.960;6.188;2022-12-29T08:10:01;9.30;;;2.20;;
51614;SDS011;37695;52.960;6.188;2022-12-29T08:12:27;9.40;;;2.30;;
51614;SDS011;37695;52.960;6.188;2022-12-29T08:14:53;9.70;;;2.25;;
51614;SDS011;37695;52.960;6.188;2022-12-29T08:17:18;10.38;;;2.45;;
51614;SDS011;37695;52.960;6.188;2022-12-29T08:19:44;11.90;;;2.45;;
51614;SDS011;37695;52.960;6.188;2022-12-29T08:22:10;9.18;;;2.35;;
51614;SDS011;37695;52.960;6.188;2022-12-29T08:24:35;12.57;;;2.58;;
51614;SDS011;37695;52.960;6.188;2022-12-29T08:27:01;9.93;;;2.97;;
51614;SDS011;37695;52.960;6.188;2022-12-29T08:29:27;10.43;;;3.33;;
51614;SDS011;37695;52.960;6.188;2022-12-29T08:31:52;9.68;;;2.67;;
51614;SDS011;37695;52.960;6.188;2022-12-29T08:34:18;10.48;;;2.60;;
51614;SDS011;37695;52.960;6.188;2022-12-29T08:36:43;12.68;;;2.55;;
51614;SDS011;37695;52.960;6.188;2022-12-29T08:39:09;13.43;;;2.83;;
51614;SDS011;37695;52.960;6.188;2022-12-29T08:41:34;16.42;;;3.95;;
51614;SDS011;37695;52.960;6.188;2022-12-29T08:44:00;12.55;;;2.75;;
51614;SDS011;37695;52.960;6.188;2022-12-29T08:46:25;12.57;;;3.63;;
51614;SDS011;37695;52.960;6.188;2022-12-29T08:48:51;8.65;;;2.40;;
51614;SDS011;37695;52.960;6.188;2022-12-29T08:51:18;10.43;;;3.30;;
51614;SDS011;37695;52.960;6.188;2022-12-29T08:53:43;10.15;;;3.25;;
51614;SDS011;37695;52.960;6.188;2022-12-29T08:56:09;10.10;;;2.90;;
51614;SDS011;37695;52.960;6.188;2022-12-29T08:58:36;9.82;;;2.97;;
51614;SDS011;37695;52.960;6.188;2022-12-29T09:01:02;11.45;;;3.05;;
51614;SDS011;37695;52.960;6.188;2022-12-29T09:03:28;9.85;;;3.28;;
51614;SDS011;37695;52.960;6.188;2022-12-29T09:05:54;12.88;;;3.17;;
51614;SDS011;37695;52.960;6.188;2022-12-29T09:08:21;10.18;;;2.40;;
51614;SDS011;37695;52.960;6.188;2022-12-29T09:10:47;7.63;;;2.88;;
51614;SDS011;37695;52.960;6.188;2022-12-29T09:13:13;14.63;;;3.78;;
51614;SDS011;37695;52.960;6.188;2022-12-29T09:15:39;8.77;;;2.63;;
51614;SDS011;37695;52.960;6.188;2022-12-29T09:18:05;11.57;;;2.83;;
51614;SDS011;37695;52.960;6.188;2022-12-29T09:20:32;9.35;;;2.55;;
51614;SDS011;37695;52.960;6.188;2022-12-29T09:22:58;12.32;;;2.70;;
51614;SDS011;37695;52.960;6.188;2022-12-29T09:25:23;10.45;;;2.47;;
51614;SDS011;37695;52.960;6.188;2022-12-29T09:27:49;9.93;;;2.58;;
51614;SDS011;37695;52.960;6.188;2022-12-29T09:30:18;10.57;;;2.30;;
51614;SDS011;37695;52.960;6.188;2022-12-29T09:32:45;11.82;;;2.97;;
51614;SDS011;37695;52.960;6.188;2022-12-29T09:35:12;11.73;;;2.80;;
51614;SDS011;37695;52.960;6.188;2022-12-29T09:37:38;11.02;;;2.30;;
51614;SDS011;37695;52.960;6.188;2022-12-29T09:40:04;8.82;;;2.55;;
51614;SDS011;37695;52.960;6.188;2022-12-29T09:42:41;12.35;;;2.58;;
51614;SDS011;37695;52.960;6.188;2022-12-29T09:45:35;9.73;;;2.50;;
51614;SDS011;37695;52.960;6.188;2022-12-29T09:48:18;8.45;;;2.15;;
51614;SDS011;37695;52.960;6.188;2022-12-29T09:50:50;9.55;;;2.28;;
51614;SDS011;37695;52.960;6.188;2022-12-29T09:53:21;10.38;;;2.35;;
51614;SDS011;37695;52.960;6.188;2022-12-29T10:01:07;10.77;;;2.30;;
51614;SDS011;37695;52.960;6.188;2022-12-29T10:03:50;11.07;;;2.55;;
51614;SDS011;37695;52.960;6.188;2022-12-29T10:09:27;10.65;;;2.03;;
51614;SDS011;37695;52.960;6.188;2022-12-29T10:12:22;5.57;;;2.10;;
51614;SDS011;37695;52.960;6.188;2022-12-29T10:18:03;8.93;;;2.55;;
51614;SDS011;37695;52.960;6.188;2022-12-29T10:23:29;7.63;;;2.53;;
51614;SDS011;37695;52.960;6.188;2022-12-29T10:26:01;8.50;;;2.97;;
51614;SDS011;37695;52.960;6.188;2022-12-29T10:28:38;7.45;;;2.28;;
51614;SDS011;37695;52.960;6.188;2022-12-29T10:31:12;10.32;;;2.75;;
51614;SDS011;37695;52.960;6.188;2022-12-29T10:33:44;9.35;;;1.98;;
51614;SDS011;37695;52.960;6.188;2022-12-29T10:36:13;10.05;;;2.22;;
51614;SDS011;37695;52.960;6.188;2022-12-29T10:38:48;7.28;;;2.17;;
51614;SDS011;37695;52.960;6.188;2022-12-29T10:41:25;13.57;;;3.42;;
51614;SDS011;37695;52.960;6.188;2022-12-29T10:43:57;7.80;;;2.33;;
51614;SDS011;37695;52.960;6.188;2022-12-29T10:46:27;11.40;;;2.58;;
51614;SDS011;37695;52.960;6.188;2022-12-29T10:48:55;7.28;;;2.17;;
51614;SDS011;37695;52.960;6.188;2022-12-29T10:51:27;8.90;;;2.75;;
51614;SDS011;37695;52.960;6.188;2022-12-29T10:56:30;8.38;;;2.30;;
51614;SDS011;37695;52.960;6.188;2022-12-29T10:58:57;7.28;;;1.90;;
51614;SDS011;37695;52.960;6.188;2022-12-29T11:01:31;9.20;;;2.33;;
51614;SDS011;37695;52.960;6.188;2022-12-29T11:04:03;11.27;;;2.55;;
51614;SDS011;37695;52.960;6.188;2022-12-29T11:06:37;10.02;;;2.67;;
51614;SDS011;37695;52.960;6.188;2022-12-29T11:09:10;12.40;;;3.17;;
51614;SDS011;37695;52.960;6.188;2022-12-29T11:11:40;9.80;;;2.60;;
51614;SDS011;37695;52.960;6.188;2022-12-29T11:14:13;14.02;;;3.60;;
51614;SDS011;37695;52.960;6.188;2022-12-29T11:17:01;13.30;;;3.08;;
51614;SDS011;37695;52.960;6.188;2022-12-29T11:19:29;7.60;;;2.35;;
51614;SDS011;37695;52.960;6.188;2022-12-29T11:22:42;11.73;;;3.17;;
51614;SDS011;37695;52.960;6.188;2022-12-29T11:24:50;13.23;;;3.20;;
51614;SDS011;37695;52.960;6.188;2022-12-29T11:27:19;14.20;;;3.25;;
51614;SDS011;37695;52.960;6.188;2022-12-29T11:29:48;15.75;;;3.33;;
51614;SDS011;37695;52.960;6.188;2022-12-29T11:32:19;9.75;;;3.13;;
51614;SDS011;37695;52.960;6.188;2022-12-29T11:34:46;11.15;;;2.92;;
51614;SDS011;37695;52.960;6.188;2022-12-29T11:37:13;12.90;;;3.35;;
51614;SDS011;37695;52.960;6.188;2022-12-29T11:39:50;11.85;;;3.38;;
51614;SDS011;37695;52.960;6.188;2022-12-29T11:42:22;11.88;;;3.10;;
51614;SDS011;37695;52.960;6.188;2022-12-29T11:44:54;14.02;;;3.58;;
51614;SDS011;37695;52.960;6.188;2022-12-29T11:47:25;14.57;;;3.25;;
51614;SDS011;37695;52.960;6.188;2022-12-29T11:49:55;11.27;;;2.92;;
51614;SDS011;37695;52.960;6.188;2022-12-29T11:52:23;13.82;;;3.50;;
51614;SDS011;37695;52.960;6.188;2022-12-29T11:54:51;13.43;;;3.25;;
51614;SDS011;37695;52.960;6.188;2022-12-29T11:57:19;19.83;;;4.15;;
51614;SDS011;37695;52.960;6.188;2022-12-29T11:59:49;10.55;;;3.15;;
51614;SDS011;37695;52.960;6.188;2022-12-29T12:02:20;13.70;;;3.47;;
51614;SDS011;37695;52.960;6.188;2022-12-29T12:04:51;12.02;;;2.90;;
51614;SDS011;37695;52.960;6.188;2022-12-29T12:07:25;14.98;;;3.88;;
51614;SDS011;37695;52.960;6.188;2022-12-29T12:10:02;11.85;;;2.83;;
51614;SDS011;37695;52.960;6.188;2022-12-29T12:12:32;16.30;;;3.58;;
51614;SDS011;37695;52.960;6.188;2022-12-29T12:15:08;13.43;;;3.08;;
51614;SDS011;37695;52.960;6.188;2022-12-29T12:17:49;12.05;;;3.45;;
51614;SDS011;37695;52.960;6.188;2022-12-29T12:25:38;15.50;;;3.17;;
51614;SDS011;37695;52.960;6.188;2022-12-29T12:28:12;10.55;;;2.53;;
51614;SDS011;37695;52.960;6.188;2022-12-29T12:30:46;11.63;;;2.80;;
51614;SDS011;37695;52.960;6.188;2022-12-29T12:35:50;11.70;;;3.17;;
51614;SDS011;37695;52.960;6.188;2022-12-29T12:38:44;12.65;;;2.80;;
51614;SDS011;37695;52.960;6.188;2022-12-29T12:41:33;13.35;;;2.58;;
51614;SDS011;37695;52.960;6.188;2022-12-29T13:00:14;10.05;;;2.67;;
51614;SDS011;37695;52.960;6.188;2022-12-29T13:11:08;6.32;;;2.05;;
51614;SDS011;37695;52.960;6.188;2022-12-29T13:17:00;9.20;;;2.53;;
51614;SDS011;37695;52.960;6.188;2022-12-29T13:19:56;11.27;;;2.58;;
51614;SDS011;37695;52.960;6.188;2022-12-29T13:25:19;10.90;;;2.25;;
51614;SDS011;37695;52.960;6.188;2022-12-29T13:30:30;7.50;;;2.20;;
51614;SDS011;37695;52.960;6.188;2022-12-29T13:33:20;9.13;;;2.25;;
51614;SDS011;37695;52.960;6.188;2022-12-29T13:38:46;8.05;;;2.40;;
51614;SDS011;37695;52.960;6.188;2022-12-29T13:41:24;7.15;;;2.17;;
51614;SDS011;37695;52.960;6.188;2022-12-29T13:44:02;10.88;;;1.65;;
51614;SDS011;37695;52.960;6.188;2022-12-29T13:46:37;8.57;;;2.00;;
51614;SDS011;37695;52.960;6.188;2022-12-29T13:49:17;8.82;;;2.03;;
51614;SDS011;37695;52.960;6.188;2022-12-29T13:51:50;9.20;;;2.25;;
51614;SDS011;37695;52.960;6.188;2022-12-29T13:54:25;11.07;;;2.40;;
51614;SDS011;37695;52.960;6.188;2022-12-29T13:59:54;7.00;;;2.00;;
51614;SDS011;37695;52.960;6.188;2022-12-29T14:02:30;11.55;;;2.55;;
51614;SDS011;37695;52.960;6.188;2022-12-29T14:05:26;9.63;;;2.47;;
51614;SDS011;37695;52.960;6.188;2022-12-29T14:08:01;10.07;;;2.22;;
51614;SDS011;37695;52.960;6.188;2022-12-29T14:10:32;13.35;;;3.05;;
51614;SDS011;37695;52.960;6.188;2022-12-29T14:13:22;10.95;;;2.08;;
51614;SDS011;37695;52.960;6.188;2022-12-29T14:15:54;10.02;;;2.67;;
51614;SDS011;37695;52.960;6.188;2022-12-29T14:18:24;12.82;;;2.08;;
51614;SDS011;37695;52.960;6.188;2022-12-29T14:23:28;9.38;;;2.15;;
51614;SDS011;37695;52.960;6.188;2022-12-29T14:31:45;9.40;;;2.08;;
51614;SDS011;37695;52.960;6.188;2022-12-29T14:39:03;7.20;;;1.67;;
51614;SDS011;37695;52.960;6.188;2022-12-29T14:41:58;8.63;;;2.53;;
51614;SDS011;37695;52.960;6.188;2022-12-29T14:44:33;7.97;;;2.20;;
51614;SDS011;37695;52.960;6.188;2022-12-29T14:47:11;7.65;;;1.73;;
51614;SDS011;37695;52.960;6.188;2022-12-29T14:49:50;9.55;;;2.25;;
51614;SDS011;37695;52.960;6.188;2022-12-29T14:52:20;6.28;;;1.90;;
51614;SDS011;37695;52.960;6.188;2022-12-29T14:54:53;5.53;;;1.90;;
51614;SDS011;37695;52.960;6.188;2022-12-29T15:02:40;6.72;;;2.58;;
51614;SDS011;37695;52.960;6.188;2022-12-29T15:05:24;7.25;;;2.17;;
51614;SDS011;37695;52.960;6.188;2022-12-29T15:07:57;10.60;;;2.08;;
51614;SDS011;37695;52.960;6.188;2022-12-29T15:10:24;8.20;;;1.85;;
51614;SDS011;37695;52.960;6.188;2022-12-29T15:12:53;7.35;;;2.00;;
51614;SDS011;37695;52.960;6.188;2022-12-29T15:15:23;14.57;;;2.35;;
51614;SDS011;37695;52.960;6.188;2022-12-29T15:17:51;8.85;;;1.83;;
51614;SDS011;37695;52.960;6.188;2022-12-29T15:20:21;10.65;;;2.00;;
51614;SDS011;37695;52.960;6.188;2022-12-29T15:25:49;11.60;;;2.55;;
51614;SDS011;37695;52.960;6.188;2022-12-29T15:28:19;7.82;;;1.77;;
51614;SDS011;37695;52.960;6.188;2022-12-29T15:30:53;10.02;;;2.60;;
51614;SDS011;37695;52.960;6.188;2022-12-29T15:33:21;7.72;;;1.85;;
51614;SDS011;37695;52.960;6.188;2022-12-29T15:35:52;6.32;;;1.80;;
51614;SDS011;37695;52.960;6.188;2022-12-29T15:38:22;10.65;;;2.53;;
51614;SDS011;37695;52.960;6.188;2022-12-29T15:40:54;8.43;;;2.22;;
51614;SDS011;37695;52.960;6.188;2022-12-29T15:46:00;8.27;;;2.03;;
51614;SDS011;37695;52.960;6.188;2022-12-29T15:48:27;8.50;;;2.35;;
51614;SDS011;37695;52.960;6.188;2022-12-29T15:50:53;8.57;;;2.08;;
51614;SDS011;37695;52.960;6.188;2022-12-29T15:53:26;8.05;;;2.70;;
51614;SDS011;37695;52.960;6.188;2022-12-29T15:55:55;8.18;;;2.25;;
51614;SDS011;37695;52.960;6.188;2022-12-29T15:58:25;7.55;;;1.85;;
51614;SDS011;37695;52.960;6.188;2022-12-29T16:00:54;7.43;;;1.65;;
51614;SDS011;37695;52.960;6.188;2022-12-29T16:03:22;5.47;;;1.77;;
51614;SDS011;37695;52.960;6.188;2022-12-29T16:05:51;8.68;;;1.75;;
51614;SDS011;37695;52.960;6.188;2022-12-29T16:08:21;8.77;;;2.22;;
51614;SDS011;37695;52.960;6.188;2022-12-29T16:10:58;9.02;;;2.20;;
51614;SDS011;37695;52.960;6.188;2022-12-29T16:13:26;8.13;;;2.42;;
51614;SDS011;37695;52.960;6.188;2022-12-29T16:18:57;9.48;;;2.20;;
51614;SDS011;37695;52.960;6.188;2022-12-29T16:21:24;6.70;;;2.10;;
51614;SDS011;37695;52.960;6.188;2022-12-29T16:23:59;10.93;;;3.20;;
51614;SDS011;37695;52.960;6.188;2022-12-29T16:26:27;9.00;;;2.38;;
51614;SDS011;37695;52.960;6.188;2022-12-29T16:28:57;11.57;;;2.13;;
51614;SDS011;37695;52.960;6.188;2022-12-29T16:31:32;6.95;;;1.92;;
51614;SDS011;37695;52.960;6.188;2022-12-29T16:34:11;8.18;;;2.15;;
51614;SDS011;37695;52.960;6.188;2022-12-29T16:36:54;5.97;;;2.03;;
51614;SDS011;37695;52.960;6.188;2022-12-29T16:39:31;7.00;;;2.67;;
51614;SDS011;37695;52.960;6.188;2022-12-29T16:42:32;4.55;;;1.23;;
51614;SDS011;37695;52.960;6.188;2022-12-29T16:50:35;5.03;;;1.40;;
51614;SDS011;37695;52.960;6.188;2022-12-29T16:53:03;5.30;;;1.38;;
51614;SDS011;37695;52.960;6.188;2022-12-29T16:55:30;5.03;;;1.33;;
51614;SDS011;37695;52.960;6.188;2022-12-29T16:57:56;4.25;;;1.30;;
51614;SDS011;37695;52.960;6.188;2022-12-29T17:00:24;3.95;;;1.17;;
51614;SDS011;37695;52.960;6.188;2022-12-29T17:02:52;4.30;;;1.48;;
51614;SDS011;37695;52.960;6.188;2022-12-29T17:05:22;5.38;;;1.20;;
51614;SDS011;37695;52.960;6.188;2022-12-29T17:07:48;8.85;;;2.47;;